Terminal Aerodrome Forecast
Issued by NWS

Home | Current Version | Previous Version | Text Only | Print | Product List | Glossary On
Versions: 1 2 3 4 5 6 7 8 9 10 11 12 13 14 15 16 17 18
000
FTUS41 KBOX 232344
TAFBAF
TAF
KBAF 232344Z 2400/2424 03013G28KT P6SM -SNPL OVC020
     FM240600 04015G29KT 1SM RAPL OVC015
     FM240800 04014G32KT 2SM RAPL OVC015
     FM241200 04013G27KT 1 1/2SM -RAPL OVC015
     FM241500 03012G26KT 1SM -RA OVC015
     FM241800 02010G21KT 2SM -RA OVC010
     FM241900 02010G20KT 2SM -RA OVC010=

USA.gov is the U.S. government's official web portal to all federal, state and local government web resources and services.